sensor_id;sensor_type;location;lat;lon;timestamp;pressure;altitude;pressure_sealevel;temperature;humidity
24788;BME280;12883;52.662;5.196;2024-02-23T00:00:29;98038.59;;;6.50;100.00
24788;BME280;12883;52.662;5.196;2024-02-23T00:02:55;98064.34;;;6.48;100.00
24788;BME280;12883;52.662;5.196;2024-02-23T00:05:22;98076.09;;;6.57;100.00
24788;BME280;12883;52.662;5.196;2024-02-23T00:07:47;98112.25;;;6.62;100.00
24788;BME280;12883;52.662;5.196;2024-02-23T00:10:13;98144.66;;;6.62;100.00
24788;BME280;12883;52.662;5.196;2024-02-23T00:12:38;98178.50;;;6.70;100.00
24788;BME280;12883;52.662;5.196;2024-02-23T00:15:04;98213.31;;;6.72;100.00
24788;BME280;12883;52.662;5.196;2024-02-23T00:17:31;98255.31;;;6.79;100.00
24788;BME280;12883;52.662;5.196;2024-02-23T00:19:56;98304.13;;;6.81;100.00
24788;BME280;12883;52.662;5.196;2024-02-23T00:22:21;98323.72;;;6.85;100.00
24788;BME280;12883;52.662;5.196;2024-02-23T00:24:47;98343.53;;;6.88;100.00
24788;BME280;12883;52.662;5.196;2024-02-23T00:27:12;98359.66;;;6.91;100.00
24788;BME280;12883;52.662;5.196;2024-02-23T00:29:37;98371.00;;;6.92;100.00
24788;BME280;12883;52.662;5.196;2024-02-23T00:32:03;98383.47;;;6.96;100.00
24788;BME280;12883;52.662;5.196;2024-02-23T00:34:29;98403.06;;;7.00;100.00
24788;BME280;12883;52.662;5.196;2024-02-23T00:36:56;98409.22;;;7.06;100.00
24788;BME280;12883;52.662;5.196;2024-02-23T00:39:22;98421.63;;;7.05;100.00
24788;BME280;12883;52.662;5.196;2024-02-23T00:41:48;98426.41;;;7.08;100.00
24788;BME280;12883;52.662;5.196;2024-02-23T00:44:13;98441.84;;;7.16;100.00
24788;BME280;12883;52.662;5.196;2024-02-23T00:46:39;98426.34;;;7.20;100.00
24788;BME280;12883;52.662;5.196;2024-02-23T00:49:05;98440.69;;;7.24;100.00
24788;BME280;12883;52.662;5.196;2024-02-23T00:51:31;98450.97;;;7.25;100.00
24788;BME280;12883;52.662;5.196;2024-02-23T00:53:56;98433.22;;;7.21;100.00
24788;BME280;12883;52.662;5.196;2024-02-23T00:56:22;98465.22;;;7.24;100.00
24788;BME280;12883;52.662;5.196;2024-02-23T00:58:47;98456.75;;;7.22;100.00
24788;BME280;12883;52.662;5.196;2024-02-23T01:01:13;98477.03;;;7.22;100.00
24788;BME280;12883;52.662;5.196;2024-02-23T01:03:38;98487.34;;;7.23;100.00
24788;BME280;12883;52.662;5.196;2024-02-23T01:06:04;98497.19;;;7.28;100.00
24788;BME280;12883;52.662;5.196;2024-02-23T01:08:29;98432.31;;;6.87;100.00
24788;BME280;12883;52.662;5.196;2024-02-23T01:10:55;98506.13;;;7.27;100.00
24788;BME280;12883;52.662;5.196;2024-02-23T01:13:20;98469.91;;;6.94;100.00
24788;BME280;12883;52.662;5.196;2024-02-23T01:15:45;98508.44;;;7.23;100.00
24788;BME280;12883;52.662;5.196;2024-02-23T01:18:11;98520.38;;;7.26;100.00
24788;BME280;12883;52.662;5.196;2024-02-23T01:20:36;98495.84;;;7.14;100.00
24788;BME280;12883;52.662;5.196;2024-02-23T01:23:02;98521.75;;;7.28;100.00
24788;BME280;12883;52.662;5.196;2024-02-23T01:25:27;98524.03;;;7.25;100.00
24788;BME280;12883;52.662;5.196;2024-02-23T01:27:52;98535.97;;;7.27;100.00
24788;BME280;12883;52.662;5.196;2024-02-23T01:30:18;98538.25;;;7.24;100.00
24788;BME280;12883;52.662;5.196;2024-02-23T01:32:46;98537.94;;;7.20;100.00
24788;BME280;12883;52.662;5.196;2024-02-23T01:35:11;98486.53;;;6.83;100.00
24788;BME280;12883;52.662;5.196;2024-02-23T01:37:37;98544.13;;;7.14;100.00
24788;BME280;12883;52.662;5.196;2024-02-23T01:40:03;98502.47;;;6.77;100.00
24788;BME280;12883;52.662;5.196;2024-02-23T01:42:28;98546.47;;;6.99;100.00
24788;BME280;12883;52.662;5.196;2024-02-23T01:44:54;98550.91;;;7.10;100.00
24788;BME280;12883;52.662;5.196;2024-02-23T01:47:22;98572.56;;;7.12;100.00
24788;BME280;12883;52.662;5.196;2024-02-23T01:49:48;98580.38;;;7.07;100.00
24788;BME280;12883;52.662;5.196;2024-02-23T01:52:15;98584.84;;;7.07;100.00
24788;BME280;12883;52.662;5.196;2024-02-23T01:54:40;98584.03;;;7.06;100.00
24788;BME280;12883;52.662;5.196;2024-02-23T01:57:06;98566.28;;;6.90;100.00
24788;BME280;12883;52.662;5.196;2024-02-23T01:59:35;98580.38;;;7.07;100.00
24788;BME280;12883;52.662;5.196;2024-02-23T02:02:02;98588.50;;;7.06;100.00
24788;BME280;12883;52.662;5.196;2024-02-23T02:04:28;98585.41;;;6.97;100.00
24788;BME280;12883;52.662;5.196;2024-02-23T02:06:54;98598.38;;;6.99;100.00
24788;BME280;12883;52.662;5.196;2024-02-23T02:09:19;98604.13;;;6.96;100.00
24788;BME280;12883;52.662;5.196;2024-02-23T02:11:48;98620.16;;;6.94;100.00
24788;BME280;12883;52.662;5.196;2024-02-23T02:14:15;98610.66;;;6.93;100.00
24788;BME280;12883;52.662;5.196;2024-02-23T02:16:40;98614.66;;;6.96;100.00
24788;BME280;12883;52.662;5.196;2024-02-23T02:19:06;98624.25;;;6.90;100.00
24788;BME280;12883;52.662;5.196;2024-02-23T02:21:32;98611.66;;;6.81;100.00
24788;BME280;12883;52.662;5.196;2024-02-23T02:23:58;98618.00;;;6.91;100.00
24788;BME280;12883;52.662;5.196;2024-02-23T02:26:23;98627.72;;;6.91;100.00
24788;BME280;12883;52.662;5.196;2024-02-23T02:28:48;98622.22;;;6.92;100.00
24788;BME280;12883;52.662;5.196;2024-02-23T02:31:14;98639.06;;;6.91;100.00
24788;BME280;12883;52.662;5.196;2024-02-23T02:33:42;98631.03;;;6.86;100.00
24788;BME280;12883;52.662;5.196;2024-02-23T02:36:08;98635.06;;;6.89;100.00
24788;BME280;12883;52.662;5.196;2024-02-23T02:38:33;98639.28;;;6.90;100.00
24788;BME280;12883;52.662;5.196;2024-02-23T02:41:01;98645.13;;;6.92;100.00
24788;BME280;12883;52.662;5.196;2024-02-23T02:43:27;98652.47;;;6.90;100.00
24788;BME280;12883;52.662;5.196;2024-02-23T02:45:52;98657.75;;;6.90;100.00
24788;BME280;12883;52.662;5.196;2024-02-23T02:48:18;98662.19;;;6.89;100.00
24788;BME280;12883;52.662;5.196;2024-02-23T02:50:44;98652.47;;;6.90;100.00
24788;BME280;12883;52.662;5.196;2024-02-23T02:53:10;98654.53;;;6.88;100.00
24788;BME280;12883;52.662;5.196;2024-02-23T02:55:36;98610.28;;;6.67;100.00
24788;BME280;12883;52.662;5.196;2024-02-23T02:58:01;98670.13;;;6.89;100.00
24788;BME280;12883;52.662;5.196;2024-02-23T03:00:27;98660.59;;;6.88;100.00
24788;BME280;12883;52.662;5.196;2024-02-23T03:02:52;98664.06;;;6.89;100.00
24788;BME280;12883;52.662;5.196;2024-02-23T03:05:18;98663.72;;;6.85;100.00
24788;BME280;12883;52.662;5.196;2024-02-23T03:07:43;98654.53;;;6.88;100.00
24788;BME280;12883;52.662;5.196;2024-02-23T03:10:09;98676.97;;;6.90;100.00
24788;BME280;12883;52.662;5.196;2024-02-23T03:12:34;98667.25;;;6.79;100.00
24788;BME280;12883;52.662;5.196;2024-02-23T03:14:59;98676.06;;;6.85;100.00
24788;BME280;12883;52.662;5.196;2024-02-23T03:17:25;98672.31;;;6.92;100.00
24788;BME280;12883;52.662;5.196;2024-02-23T03:19:50;98673.78;;;6.88;100.00
24788;BME280;12883;52.662;5.196;2024-02-23T03:22:15;98674.34;;;6.90;100.00
24788;BME280;12883;52.662;5.196;2024-02-23T03:24:41;98678.84;;;6.90;100.00
24788;BME280;12883;52.662;5.196;2024-02-23T03:27:06;98637.56;;;6.61;100.00
24788;BME280;12883;52.662;5.196;2024-02-23T03:29:31;98689.16;;;6.91;100.00
24788;BME280;12883;52.662;5.196;2024-02-23T03:31:57;98690.16;;;6.90;100.00
24788;BME280;12883;52.662;5.196;2024-02-23T03:34:23;98697.50;;;6.88;100.00
24788;BME280;12883;52.662;5.196;2024-02-23T03:36:48;98687.09;;;6.82;100.00
24788;BME280;12883;52.662;5.196;2024-02-23T03:39:13;98696.00;;;6.81;100.00
24788;BME280;12883;52.662;5.196;2024-02-23T03:41:39;98691.53;;;6.81;100.00
24788;BME280;12883;52.662;5.196;2024-02-23T03:44:04;98702.91;;;6.82;100.00
24788;BME280;12883;52.662;5.196;2024-02-23T03:46:30;98705.75;;;6.80;100.00
24788;BME280;12883;52.662;5.196;2024-02-23T03:48:56;98695.88;;;6.64;100.00
24788;BME280;12883;52.662;5.196;2024-02-23T03:51:21;98713.66;;;6.80;100.00
24788;BME280;12883;52.662;5.196;2024-02-23T03:53:46;98712.84;;;6.80;100.00
24788;BME280;12883;52.662;5.196;2024-02-23T03:56:12;98714.09;;;6.77;100.00
24788;BME280;12883;52.662;5.196;2024-02-23T03:58:38;98717.91;;;6.81;100.00
24788;BME280;12883;52.662;5.196;2024-02-23T04:01:03;98721.09;;;6.83;100.00
24788;BME280;12883;52.662;5.196;2024-02-23T04:03:28;98714.81;;;6.84;100.00
24788;BME280;12883;52.662;5.196;2024-02-23T04:05:54;98723.63;;;6.78;100.00
24788;BME280;12883;52.662;5.196;2024-02-23T04:08:19;98711.03;;;6.80;100.00
24788;BME280;12883;52.662;5.196;2024-02-23T04:10:44;98701.25;;;6.81;100.00
24788;BME280;12883;52.662;5.196;2024-02-23T04:13:10;98712.63;;;6.81;100.00
24788;BME280;12883;52.662;5.196;2024-02-23T04:15:39;98713.44;;;6.82;100.00
24788;BME280;12883;52.662;5.196;2024-02-23T04:18:04;98720.66;;;6.86;100.00
24788;BME280;12883;52.662;5.196;2024-02-23T04:20:30;98720.09;;;6.84;100.00
24788;BME280;12883;52.662;5.196;2024-02-23T04:22:55;98713.31;;;6.88;100.00
24788;BME280;12883;52.662;5.196;2024-02-23T04:25:20;98730.31;;;6.92;100.00
24788;BME280;12883;52.662;5.196;2024-02-23T04:27:46;98712.19;;;6.96;100.00
24788;BME280;12883;52.662;5.196;2024-02-23T04:30:12;98722.50;;;6.97;100.00
24788;BME280;12883;52.662;5.196;2024-02-23T04:32:38;98721.25;;;7.00;100.00
24788;BME280;12883;52.662;5.196;2024-02-23T04:35:04;98726.28;;;7.01;100.00
24788;BME280;12883;52.662;5.196;2024-02-23T04:37:30;98722.06;;;7.00;100.00
24788;BME280;12883;52.662;5.196;2024-02-23T04:39:55;98716.78;;;7.00;100.00
24788;BME280;12883;52.662;5.196;2024-02-23T04:42:20;98647.69;;;6.46;100.00
24788;BME280;12883;52.662;5.196;2024-02-23T04:44:46;98711.94;;;6.97;100.00
24788;BME280;12883;52.662;5.196;2024-02-23T04:47:11;98691.88;;;6.85;100.00
24788;BME280;12883;52.662;5.196;2024-02-23T04:49:36;98724.81;;;7.05;100.00
24788;BME280;12883;52.662;5.196;2024-02-23T04:52:02;98728.03;;;7.07;100.00
24788;BME280;12883;52.662;5.196;2024-02-23T04:54:27;98702.78;;;6.88;100.00
24788;BME280;12883;52.662;5.196;2024-02-23T04:56:53;98729.28;;;7.05;100.00
24788;BME280;12883;52.662;5.196;2024-02-23T04:59:18;98737.88;;;7.00;100.00
24788;BME280;12883;52.662;5.196;2024-02-23T05:01:43;98743.00;;;6.95;100.00
24788;BME280;12883;52.662;5.196;2024-02-23T05:04:09;98742.81;;;6.97;100.00
24788;BME280;12883;52.662;5.196;2024-02-23T05:06:34;98748.75;;;6.92;100.00
24788;BME280;12883;52.662;5.196;2024-02-23T05:09:00;98755.13;;;6.85;100.00
24788;BME280;12883;52.662;5.196;2024-02-23T05:11:26;98729.59;;;6.85;100.00
24788;BME280;12883;52.662;5.196;2024-02-23T05:13:52;98726.03;;;6.80;100.00
24788;BME280;12883;52.662;5.196;2024-02-23T05:16:17;98693.53;;;6.56;100.00
24788;BME280;12883;52.662;5.196;2024-02-23T05:18:43;98720.09;;;6.84;100.00
24788;BME280;12883;52.662;5.196;2024-02-23T05:21:09;98676.47;;;6.59;100.00
24788;BME280;12883;52.662;5.196;2024-02-23T05:23:35;98716.63;;;6.84;100.00
24788;BME280;12883;52.662;5.196;2024-02-23T05:26:01;98706.91;;;6.84;100.00
24788;BME280;12883;52.662;5.196;2024-02-23T05:28:26;98695.22;;;6.80;100.00
24788;BME280;12883;52.662;5.196;2024-02-23T05:30:53;98696.47;;;6.78;100.00
24788;BME280;12883;52.662;5.196;2024-02-23T05:33:19;98691.19;;;6.78;100.00
24788;BME280;12883;52.662;5.196;2024-02-23T05:35:46;98674.53;;;6.54;100.00
24788;BME280;12883;52.662;5.196;2024-02-23T05:38:16;98700.81;;;6.72;100.00
24788;BME280;12883;52.662;5.196;2024-02-23T05:40:42;98692.91;;;6.72;100.00
24788;BME280;12883;52.662;5.196;2024-02-23T05:43:08;98691.31;;;6.71;100.00
24788;BME280;12883;52.662;5.196;2024-02-23T05:45:33;98699.78;;;6.73;100.00
24788;BME280;12883;52.662;5.196;2024-02-23T05:47:58;98692.78;;;6.67;100.00
24788;BME280;12883;52.662;5.196;2024-02-23T05:50:24;98691.94;;;6.55;100.00
24788;BME280;12883;52.662;5.196;2024-02-23T05:52:49;98662.94;;;6.44;100.00
24788;BME280;12883;52.662;5.196;2024-02-23T05:55:15;98698.94;;;6.61;100.00
24788;BME280;12883;52.662;5.196;2024-02-23T05:57:40;98688.41;;;6.61;100.00
24788;BME280;12883;52.662;5.196;2024-02-23T06:00:06;98698.59;;;6.58;100.00
24788;BME280;12883;52.662;5.196;2024-02-23T06:02:32;98697.56;;;6.59;100.00
24788;BME280;12883;52.662;5.196;2024-02-23T06:04:58;98698.81;;;6.56;100.00
24788;BME280;12883;52.662;5.196;2024-02-23T06:07:23;98692.97;;;6.54;100.00
24788;BME280;12883;52.662;5.196;2024-02-23T06:09:55;98697.31;;;6.49;100.00
24788;BME280;12883;52.662;5.196;2024-02-23T06:12:21;98671.66;;;6.44;100.00
24788;BME280;12883;52.662;5.196;2024-02-23T06:14:46;98685.84;;;6.43;100.00
24788;BME280;12883;52.662;5.196;2024-02-23T06:17:11;98698.41;;;6.41;100.00
24788;BME280;12883;52.662;5.196;2024-02-23T06:19:37;98694.19;;;6.40;100.00
24788;BME280;12883;52.662;5.196;2024-02-23T06:22:02;98694.19;;;6.40;100.00
24788;BME280;12883;52.662;5.196;2024-02-23T06:24:27;98698.88;;;6.38;100.00
24788;BME280;12883;52.662;5.196;2024-02-23T06:26:53;98703.13;;;6.39;100.00
24788;BME280;12883;52.662;5.196;2024-02-23T06:29:18;98711.84;;;6.40;100.00
24788;BME280;12883;52.662;5.196;2024-02-23T06:31:44;98717.31;;;6.38;100.00
24788;BME280;12883;52.662;5.196;2024-02-23T06:34:14;98700.34;;;6.34;100.00
24788;BME280;12883;52.662;5.196;2024-02-23T06:36:39;98718.34;;;6.37;100.00
24788;BME280;12883;52.662;5.196;2024-02-23T06:39:05;98726.47;;;6.36;100.00
24788;BME280;12883;52.662;5.196;2024-02-23T06:41:30;98708.75;;;6.43;100.00
24788;BME280;12883;52.662;5.196;2024-02-23T06:43:56;98669.84;;;6.15;100.00
24788;BME280;12883;52.662;5.196;2024-02-23T06:46:21;98732.47;;;6.54;100.00
24788;BME280;12883;52.662;5.196;2024-02-23T06:48:47;98734.00;;;6.62;100.00
24788;BME280;12883;52.662;5.196;2024-02-23T06:51:13;98723.34;;;6.68;100.00
24788;BME280;12883;52.662;5.196;2024-02-23T06:53:39;98731.41;;;6.73;100.00
24788;BME280;12883;52.662;5.196;2024-02-23T06:56:04;98722.59;;;6.79;100.00
24788;BME280;12883;52.662;5.196;2024-02-23T06:58:30;98722.25;;;6.76;100.00
24788;BME280;12883;52.662;5.196;2024-02-23T07:00:55;98721.09;;;6.83;100.00
24788;BME280;12883;52.662;5.196;2024-02-23T07:03:20;98728.78;;;6.85;100.00
24788;BME280;12883;52.662;5.196;2024-02-23T07:05:46;98733.97;;;6.91;100.00
24788;BME280;12883;52.662;5.196;2024-02-23T07:08:12;98714.69;;;6.79;100.00
24788;BME280;12883;52.662;5.196;2024-02-23T07:10:38;98711.38;;;6.95;100.00
24788;BME280;12883;52.662;5.196;2024-02-23T07:13:03;98726.63;;;6.93;100.00
24788;BME280;12883;52.662;5.196;2024-02-23T07:15:29;98722.75;;;6.96;100.00
24788;BME280;12883;52.662;5.196;2024-02-23T07:17:55;98729.16;;;7.00;100.00
24788;BME280;12883;52.662;5.196;2024-02-23T07:20:21;98724.56;;;6.95;100.00
24788;BME280;12883;52.662;5.196;2024-02-23T07:22:47;98729.75;;;7.02;100.00
24788;BME280;12883;52.662;5.196;2024-02-23T07:25:19;98743.94;;;7.01;100.00
24788;BME280;12883;52.662;5.196;2024-02-23T07:27:48;98726.50;;;7.00;100.00
24788;BME280;12883;52.662;5.196;2024-02-23T07:30:16;98706.25;;;7.00;100.00
24788;BME280;12883;52.662;5.196;2024-02-23T07:32:43;98711.50;;;7.00;100.00
24788;BME280;12883;52.662;5.196;2024-02-23T07:35:09;98720.56;;;7.04;100.00
24788;BME280;12883;52.662;5.196;2024-02-23T07:37:34;98735.81;;;7.02;100.00
24788;BME280;12883;52.662;5.196;2024-02-23T07:40:00;98741.09;;;7.02;100.00
24788;BME280;12883;52.662;5.196;2024-02-23T07:42:25;98718.03;;;7.09;100.00
24788;BME280;12883;52.662;5.196;2024-02-23T07:44:52;98722.28;;;7.10;100.00
24788;BME280;12883;52.662;5.196;2024-02-23T07:47:17;98713.81;;;7.08;100.00
24788;BME280;12883;52.662;5.196;2024-02-23T07:49:43;98705.78;;;7.03;100.00
24788;BME280;12883;52.662;5.196;2024-02-23T07:52:08;98732.63;;;7.12;100.00
24788;BME280;12883;52.662;5.196;2024-02-23T07:54:33;98728.25;;;7.06;100.00
24788;BME280;12883;52.662;5.196;2024-02-23T07:56:59;98713.00;;;7.08;100.00
24788;BME280;12883;52.662;5.196;2024-02-23T07:59:24;98730.53;;;7.14;100.00
24788;BME280;12883;52.662;5.196;2024-02-23T08:01:50;98710.59;;;7.18;100.00
24788;BME280;12883;52.662;5.196;2024-02-23T08:04:16;98732.28;;;7.20;100.00
24788;BME280;12883;52.662;5.196;2024-02-23T08:06:41;98719.31;;;7.18;100.00
24788;BME280;12883;52.662;5.196;2024-02-23T08:09:08;98721.72;;;7.20;100.00
24788;BME280;12883;52.662;5.196;2024-02-23T08:11:34;98705.44;;;7.00;100.00
24788;BME280;12883;52.662;5.196;2024-02-23T08:13:59;98727.81;;;7.20;100.00
24788;BME280;12883;52.662;5.196;2024-02-23T08:16:25;98721.72;;;7.20;100.00
24788;BME280;12883;52.662;5.196;2024-02-23T08:18:51;98718.31;;;7.19;100.00
24788;BME280;12883;52.662;5.196;2024-02-23T08:21:16;98722.06;;;7.23;100.00
24788;BME280;12883;52.662;5.196;2024-02-23T08:23:41;98715.88;;;7.29;100.00
24788;BME280;12883;52.662;5.196;2024-02-23T08:26:07;98720.59;;;7.27;100.00
24788;BME280;12883;52.662;5.196;2024-02-23T08:28:32;98717.47;;;7.30;100.00
24788;BME280;12883;52.662;5.196;2024-02-23T08:30:57;98721.38;;;7.28;100.00
24788;BME280;12883;52.662;5.196;2024-02-23T08:33:23;98706.03;;;7.25;100.00
24788;BME280;12883;52.662;5.196;2024-02-23T08:35:48;98712.78;;;7.32;100.00
24788;BME280;12883;52.662;5.196;2024-02-23T08:38:14;98715.31;;;7.39;100.00
24788;BME280;12883;52.662;5.196;2024-02-23T08:40:39;98711.75;;;7.33;100.00
24788;BME280;12883;52.662;5.196;2024-02-23T08:43:05;98713.13;;;7.36;100.00
24788;BME280;12883;52.662;5.196;2024-02-23T08:45:30;98729.28;;;7.39;100.00
24788;BME280;12883;52.662;5.196;2024-02-23T08:47:56;98713.38;;;7.34;100.00
24788;BME280;12883;52.662;5.196;2024-02-23T08:50:21;98711.63;;;7.28;100.00
24788;BME280;12883;52.662;5.196;2024-02-23T08:52:47;98720.69;;;7.21;100.00
24788;BME280;12883;52.662;5.196;2024-02-23T08:55:12;98687.44;;;6.97;100.00
24788;BME280;12883;52.662;5.196;2024-02-23T08:57:37;98696.81;;;7.04;100.00
24788;BME280;12883;52.662;5.196;2024-02-23T09:00:04;98695.34;;;6.97;100.00
24788;BME280;12883;52.662;5.196;2024-02-23T09:02:30;98681.13;;;6.86;100.00
24788;BME280;12883;52.662;5.196;2024-02-23T09:04:57;98678.94;;;6.83;100.00
24788;BME280;12883;52.662;5.196;2024-02-23T09:07:23;98669.19;;;6.84;100.00
24788;BME280;12883;52.662;5.196;2024-02-23T09:09:49;98690.72;;;6.81;100.00
24788;BME280;12883;52.662;5.196;2024-02-23T09:12:15;98658.31;;;6.80;100.00
24788;BME280;12883;52.662;5.196;2024-02-23T09:14:42;98657.28;;;6.81;100.00
24788;BME280;12883;52.662;5.196;2024-02-23T09:17:08;98649.94;;;6.83;100.00
24788;BME280;12883;52.662;5.196;2024-02-23T09:19:35;98646.84;;;6.86;100.00
24788;BME280;12883;52.662;5.196;2024-02-23T09:22:00;98654.28;;;6.89;100.00
24788;BME280;12883;52.662;5.196;2024-02-23T09:24:27;98635.63;;;6.91;100.00
24788;BME280;12883;52.662;5.196;2024-02-23T09:26:52;98639.75;;;6.98;100.00
24788;BME280;12883;52.662;5.196;2024-02-23T09:29:18;98625.88;;;7.03;100.00
24788;BME280;12883;52.662;5.196;2024-02-23T09:31:43;98638.81;;;7.04;100.00
24788;BME280;12883;52.662;5.196;2024-02-23T09:34:08;98632.28;;;7.07;100.00
24788;BME280;12883;52.662;5.196;2024-02-23T09:36:34;98633.31;;;7.06;100.00
24788;BME280;12883;52.662;5.196;2024-02-23T09:38:59;98580.16;;;6.74;100.00
24788;BME280;12883;52.662;5.196;2024-02-23T09:41:27;98622.56;;;7.07;100.00
24788;BME280;12883;52.662;5.196;2024-02-23T09:44:00;98640.19;;;7.18;100.00
24788;BME280;12883;52.662;5.196;2024-02-23T09:46:26;98623.69;;;7.11;100.00
24788;BME280;12883;52.662;5.196;2024-02-23T09:48:52;98645.38;;;7.13;100.00
24788;BME280;12883;52.662;5.196;2024-02-23T09:51:19;98624.38;;;7.18;100.00
24788;BME280;12883;52.662;5.196;2024-02-23T09:53:46;98650.19;;;7.16;100.00
24788;BME280;12883;52.662;5.196;2024-02-23T09:56:15;98609.81;;;6.93;100.00
24788;BME280;12883;52.662;5.196;2024-02-23T09:58:43;98650.41;;;7.15;100.00
24788;BME280;12883;52.662;5.196;2024-02-23T10:01:10;98636.19;;;7.04;100.00
24788;BME280;12883;52.662;5.196;2024-02-23T10:03:37;98647.53;;;7.16;100.00
24788;BME280;12883;52.662;5.196;2024-02-23T10:06:04;98657.72;;;7.24;100.00
24788;BME280;12883;52.662;5.196;2024-02-23T10:08:30;98647.53;;;7.28;100.00
24788;BME280;12883;52.662;5.196;2024-02-23T10:10:56;98650.06;;;7.34;100.00
24788;BME280;12883;52.662;5.196;2024-02-23T10:13:22;98628.13;;;7.34;100.00
24788;BME280;12883;52.662;5.196;2024-02-23T10:15:50;98597.91;;;7.13;100.00
24788;BME280;12883;52.662;5.196;2024-02-23T10:18:16;98659.78;;;7.45;100.00
24788;BME280;12883;52.662;5.196;2024-02-23T10:20:41;98654.59;;;7.50;100.00
24788;BME280;12883;52.662;5.196;2024-02-23T10:23:08;98643.38;;;7.43;100.00
24788;BME280;12883;52.662;5.196;2024-02-23T10:25:34;98662.63;;;7.55;100.00
24788;BME280;12883;52.662;5.196;2024-02-23T10:28:01;98665.03;;;7.57;100.00
24788;BME280;12883;52.662;5.196;2024-02-23T10:30:27;98645.88;;;7.61;100.00
24788;BME280;12883;52.662;5.196;2024-02-23T10:32:55;98598.56;;;7.32;100.00
24788;BME280;12883;52.662;5.196;2024-02-23T10:35:22;98677.03;;;7.76;100.00
24788;BME280;12883;52.662;5.196;2024-02-23T10:37:48;98617.81;;;7.44;100.00
24788;BME280;12883;52.662;5.196;2024-02-23T10:40:19;98677.16;;;7.81;100.00
24788;BME280;12883;52.662;5.196;2024-02-23T10:42:46;98682.22;;;7.82;100.00
24788;BME280;12883;52.662;5.196;2024-02-23T10:45:17;98686.22;;;7.85;100.00
24788;BME280;12883;52.662;5.196;2024-02-23T10:47:43;98690.78;;;7.89;100.00
24788;BME280;12883;52.662;5.196;2024-02-23T10:50:09;98642.09;;;7.57;100.00
24788;BME280;12883;52.662;5.196;2024-02-23T10:52:35;98696.41;;;7.93;100.00
24788;BME280;12883;52.662;5.196;2024-02-23T10:55:01;98724.28;;;8.00;100.00
24788;BME280;12883;52.662;5.196;2024-02-23T10:57:31;98729.44;;;8.07;100.00
24788;BME280;12883;52.662;5.196;2024-02-23T10:59:57;98736.09;;;8.09;100.00
24788;BME280;12883;52.662;5.196;2024-02-23T11:02:24;98731.47;;;8.16;100.00
24788;BME280;12883;52.662;5.196;2024-02-23T11:04:51;98697.41;;;8.03;100.00
24788;BME280;12883;52.662;5.196;2024-02-23T11:07:20;98753.19;;;8.18;100.00
24788;BME280;12883;52.662;5.196;2024-02-23T11:09:52;98768.47;;;8.28;100.00
24788;BME280;12883;52.662;5.196;2024-02-23T11:12:29;98734.22;;;8.21;100.00
24788;BME280;12883;52.662;5.196;2024-02-23T11:14:58;98748.41;;;8.43;100.00
24788;BME280;12883;52.662;5.196;2024-02-23T11:17:29;98758.63;;;8.51;100.00
24788;BME280;12883;52.662;5.196;2024-02-23T11:19:56;98757.28;;;8.65;100.00
24788;BME280;12883;52.662;5.196;2024-02-23T11:22:32;98771.44;;;8.59;100.00
24788;BME280;12883;52.662;5.196;2024-02-23T11:25:03;98779.25;;;8.82;100.00
24788;BME280;12883;52.662;5.196;2024-02-23T11:27:31;98785.59;;;8.81;100.00
24788;BME280;12883;52.662;5.196;2024-02-23T11:30:07;98812.69;;;8.88;100.00
24788;BME280;12883;52.662;5.196;2024-02-23T11:32:44;98810.28;;;8.87;100.00
24788;BME280;12883;52.662;5.196;2024-02-23T11:35:12;98790.22;;;8.74;100.00
24788;BME280;12883;52.662;5.196;2024-02-23T11:37:48;98808.88;;;8.96;100.00
24788;BME280;12883;52.662;5.196;2024-02-23T11:40:14;98812.88;;;8.98;100.00
24788;BME280;12883;52.662;5.196;2024-02-23T11:42:41;98809.56;;;8.91;100.00
24788;BME280;12883;52.662;5.196;2024-02-23T11:45:08;98831.81;;;9.07;100.00
24788;BME280;12883;52.662;5.196;2024-02-23T11:47:33;98827.72;;;8.99;100.00
24788;BME280;12883;52.662;5.196;2024-02-23T11:49:58;98835.00;;;8.92;100.00
24788;BME280;12883;52.662;5.196;2024-02-23T11:52:24;98828.19;;;8.96;100.00
24788;BME280;12883;52.662;5.196;2024-02-23T11:54:50;98822.28;;;9.06;100.00
24788;BME280;12883;52.662;5.196;2024-02-23T11:57:16;98838.88;;;9.18;100.00
24788;BME280;12883;52.662;5.196;2024-02-23T11:59:41;98834.88;;;9.15;100.00
24788;BME280;12883;52.662;5.196;2024-02-23T12:02:07;98850.13;;;9.25;100.00
24788;BME280;12883;52.662;5.196;2024-02-23T12:04:33;98847.22;;;9.26;100.00
24788;BME280;12883;52.662;5.196;2024-02-23T12:06:58;98856.41;;;9.35;100.00
24788;BME280;12883;52.662;5.196;2024-02-23T12:09:24;98835.19;;;9.19;100.00
24788;BME280;12883;52.662;5.196;2024-02-23T12:11:50;98869.47;;;9.42;100.00
24788;BME280;12883;52.662;5.196;2024-02-23T12:14:15;98869.13;;;9.38;100.00
24788;BME280;12883;52.662;5.196;2024-02-23T12:16:41;98882.59;;;9.37;100.00
24788;BME280;12883;52.662;5.196;2024-02-23T12:19:08;98889.75;;;9.36;100.00
24788;BME280;12883;52.662;5.196;2024-02-23T12:21:34;98902.44;;;9.34;100.00
24788;BME280;12883;52.662;5.196;2024-02-23T12:24:05;98849.53;;;9.23;100.00
24788;BME280;12883;52.662;5.196;2024-02-23T12:26:34;98895.19;;;9.30;100.00
24788;BME280;12883;52.662;5.196;2024-02-23T12:29:03;98904.03;;;9.35;100.00
24788;BME280;12883;52.662;5.196;2024-02-23T12:31:31;98871.34;;;9.13;100.00
24788;BME280;12883;52.662;5.196;2024-02-23T12:33:57;98893.13;;;9.32;100.00
24788;BME280;12883;52.662;5.196;2024-02-23T12:36:23;98889.00;;;9.24;100.00
24788;BME280;12883;52.662;5.196;2024-02-23T12:38:48;98912.09;;;9.29;100.00
24788;BME280;12883;52.662;5.196;2024-02-23T12:41:14;98885.50;;;9.35;100.00
24788;BME280;12883;52.662;5.196;2024-02-23T12:43:39;98909.22;;;9.30;100.00
24788;BME280;12883;52.662;5.196;2024-02-23T12:46:05;98904.13;;;9.40;100.00
24788;BME280;12883;52.662;5.196;2024-02-23T12:48:31;98912.44;;;9.32;100.00
24788;BME280;12883;52.662;5.196;2024-02-23T12:50:57;98883.78;;;9.13;100.00
24788;BME280;12883;52.662;5.196;2024-02-23T12:53:39;98915.41;;;9.36;100.00